createdAt,value
2019-05-13T00:00:44.416Z,51.45
2019-05-13T00:03:10.510Z,51.35
2019-05-13T00:05:37.294Z,51.55
2019-05-13T00:08:04.082Z,51.44
2019-05-13T00:10:30.923Z,51.55
2019-05-13T00:12:57.760Z,51.47
2019-05-13T00:15:24.635Z,51.44
2019-05-13T00:17:51.454Z,51.61
2019-05-13T00:20:18.243Z,51.60
2019-05-13T00:22:45.108Z,51.67
2019-05-13T00:25:14.285Z,51.68
2019-05-13T00:27:40.594Z,51.46
2019-05-13T00:30:07.474Z,51.57
2019-05-13T00:32:34.277Z,51.85
2019-05-13T00:35:01.153Z,51.61
2019-05-13T00:37:27.954Z,51.64
2019-05-13T00:39:54.784Z,51.63
2019-05-13T00:42:21.717Z,51.29
2019-05-13T00:44:48.564Z,51.34
2019-05-13T00:47:15.353Z,51.50
2019-05-13T00:49:43.667Z,51.67
2019-05-13T00:52:10.632Z,51.37
2019-05-13T00:54:37.501Z,51.35
2019-05-13T00:57:04.463Z,51.52
2019-05-13T00:59:33.629Z,51.48
2019-05-13T01:01:59.905Z,51.49
2019-05-13T01:04:26.755Z,51.35
2019-05-13T01:06:53.894Z,51.44
2019-05-13T01:09:20.840Z,51.34
2019-05-13T01:11:47.729Z,51.48
2019-05-13T01:14:14.639Z,51.32
2019-05-13T01:16:41.520Z,51.78
2019-05-13T01:19:08.298Z,51.55
2019-05-13T01:21:35.094Z,51.45
2019-05-13T01:24:03.701Z,51.71
2019-05-13T01:26:30.595Z,51.43
2019-05-13T01:28:57.560Z,51.73
2019-05-13T01:31:24.385Z,51.47
2019-05-13T01:33:53.646Z,51.27
2019-05-13T01:36:19.831Z,51.35
2019-05-13T01:38:46.723Z,51.62
2019-05-13T01:41:13.748Z,51.42
2019-05-13T01:43:40.604Z,51.64
2019-05-13T01:46:07.414Z,51.45
2019-05-13T01:48:34.275Z,51.75
2019-05-13T01:51:03.564Z,51.55
2019-05-13T01:53:29.594Z,51.44
2019-05-13T01:55:56.394Z,51.69
2019-05-13T01:58:23.714Z,51.75
2019-05-13T02:00:51.748Z,51.53
2019-05-13T02:03:19.145Z,51.64
2019-05-13T02:05:45.970Z,51.72
2019-05-13T02:08:14.398Z,51.54
2019-05-13T02:10:54.314Z,51.53
2019-05-13T02:13:20.582Z,51.39
2019-05-13T02:15:47.654Z,51.47
2019-05-13T02:18:14.568Z,51.42
2019-05-13T02:20:44.075Z,51.45
2019-05-13T02:23:10.852Z,51.81
2019-05-13T02:25:37.685Z,51.53
2019-05-13T02:28:09.533Z,51.69
2019-05-13T02:30:34.940Z,51.78
2019-05-13T02:33:02.791Z,51.58
2019-05-13T02:35:32.550Z,51.73
2019-05-13T02:38:16.836Z,51.65
2019-05-13T02:40:27.083Z,51.62
2019-05-13T02:42:53.960Z,51.71
2019-05-13T02:45:22.686Z,51.79
2019-05-13T02:47:51.997Z,51.44
2019-05-13T02:50:17.803Z,51.43
2019-05-13T02:52:44.722Z,51.49
2019-05-13T02:55:12.510Z,51.64
2019-05-13T02:57:43.268Z,51.79
2019-05-13T03:00:08.200Z,51.66
2019-05-13T03:02:35.018Z,51.66
2019-05-13T03:05:03.181Z,51.65
2019-05-13T03:07:33.207Z,51.59
2019-05-13T03:09:59.066Z,51.66
2019-05-13T03:12:25.949Z,51.79
2019-05-13T03:14:53.434Z,51.47
2019-05-13T03:17:25.210Z,51.71
2019-05-13T03:19:53.055Z,51.49
2019-05-13T03:22:22.438Z,51.84
2019-05-13T03:24:52.107Z,51.50
2019-05-13T03:27:20.181Z,51.71
2019-05-13T03:29:45.977Z,51.49
2019-05-13T03:32:16.562Z,51.61
2019-05-13T03:34:45.628Z,51.67
2019-05-13T03:37:15.129Z,51.60
2019-05-13T03:39:38.506Z,51.73
2019-05-13T03:42:05.362Z,51.98
2019-05-13T03:44:32.641Z,51.88
2019-05-13T03:47:03.168Z,51.81
2019-05-13T03:49:28.261Z,51.52
2019-05-13T03:51:55.135Z,51.65
2019-05-13T03:54:22.853Z,51.63
2019-05-13T03:56:52.808Z,52.06
2019-05-13T03:59:18.325Z,51.66
2019-05-13T04:01:45.403Z,51.68
2019-05-13T04:04:12.723Z,51.99
2019-05-13T04:06:42.664Z,51.85
2019-05-13T04:09:22.433Z,51.88
2019-05-13T04:11:36.746Z,52.09
2019-05-13T04:14:03.660Z,52.00
2019-05-13T04:16:32.308Z,52.00
2019-05-13T04:19:02.339Z,52.14
2019-05-13T04:21:27.543Z,51.79
2019-05-13T04:23:54.341Z,52.00
2019-05-13T04:26:23.561Z,51.64
2019-05-13T04:28:52.619Z,51.87
2019-05-13T04:31:18.550Z,51.88
2019-05-13T04:33:45.444Z,51.72
2019-05-13T04:36:13.304Z,51.98
2019-05-13T04:38:44.115Z,51.96
2019-05-13T04:41:11.764Z,51.63
2019-05-13T04:43:37.863Z,51.80
2019-05-13T04:46:04.693Z,51.72
2019-05-13T04:48:34.031Z,51.89
2019-05-13T04:51:02.961Z,51.77
2019-05-13T04:53:28.677Z,51.93
2019-05-13T04:55:55.526Z,51.91
2019-05-13T04:58:23.536Z,51.71
2019-05-13T05:01:01.975Z,51.92
2019-05-13T05:03:22.860Z,52.13
2019-05-13T05:05:47.752Z,52.02
2019-05-13T05:08:14.574Z,52.19
2019-05-13T05:10:42.833Z,52.12
2019-05-13T05:13:12.651Z,51.99
2019-05-13T05:15:38.508Z,51.87
2019-05-13T05:18:05.316Z,52.23
2019-05-13T05:20:32.562Z,51.98
2019-05-13T05:23:01.750Z,51.82
2019-05-13T05:25:29.319Z,51.95
2019-05-13T05:27:58.263Z,51.74
2019-05-13T05:30:24.861Z,51.90
2019-05-13T05:32:51.948Z,51.75
2019-05-13T05:35:18.877Z,51.89
2019-05-13T05:37:45.762Z,51.62
2019-05-13T05:40:12.639Z,52.21
2019-05-13T05:42:41.247Z,52.03
2019-05-13T05:45:08.323Z,52.07
2019-05-13T05:47:35.182Z,52.07
2019-05-13T05:50:03.056Z,52.08
2019-05-13T05:52:31.594Z,51.96
2019-05-13T05:54:58.516Z,52.21
2019-05-13T05:57:25.300Z,52.08
2019-05-13T05:59:52.154Z,52.26
2019-05-13T06:02:18.958Z,52.27
2019-05-13T06:04:45.730Z,52.24
2019-05-13T06:07:12.540Z,52.27
2019-05-13T06:09:39.362Z,52.37
2019-05-13T06:12:06.135Z,51.94
2019-05-13T06:14:33.046Z,52.29
2019-05-13T06:17:02.394Z,52.16
2019-05-13T06:19:28.399Z,52.13
2019-05-13T06:21:55.172Z,52.24
2019-05-13T06:24:26.204Z,52.21
2019-05-13T06:26:52.045Z,52.13
2019-05-13T06:29:19.226Z,52.24
2019-05-13T06:31:46.065Z,52.03
2019-05-13T06:34:12.898Z,52.13
2019-05-13T06:36:41.804Z,52.18
2019-05-13T06:39:08.299Z,51.83
2019-05-13T06:41:35.070Z,51.86
2019-05-13T06:44:02.609Z,51.75
2019-05-13T06:46:32.166Z,51.99
2019-05-13T06:48:58.314Z,51.91
2019-05-13T06:51:25.198Z,51.95
2019-05-13T06:53:52.064Z,51.93
2019-05-13T06:56:21.601Z,51.83
2019-05-13T06:58:47.515Z,52.12
2019-05-13T07:01:14.380Z,52.08
2019-05-13T07:03:42.008Z,52.04
2019-05-13T07:06:09.250Z,52.19
2019-05-13T07:08:36.164Z,52.10
2019-05-13T07:11:17.098Z,52.17
2019-05-13T07:13:32.336Z,52.19
2019-05-13T07:16:01.369Z,52.12
2019-05-13T07:18:27.857Z,51.95
2019-05-13T07:20:54.679Z,52.04
2019-05-13T07:23:22.435Z,52.12
2019-05-13T07:25:52.246Z,51.92
2019-05-13T07:28:18.006Z,51.84
2019-05-13T07:30:44.927Z,51.60
2019-05-13T07:33:12.807Z,51.65
2019-05-13T07:35:44.352Z,51.83
2019-05-13T07:38:08.714Z,51.95
2019-05-13T07:40:35.919Z,51.75
2019-05-13T07:43:02.862Z,51.71
2019-05-13T07:45:31.582Z,51.63
2019-05-13T07:47:58.205Z,51.61
2019-05-13T07:50:25.120Z,51.76
2019-05-13T07:52:51.976Z,51.53
2019-05-13T07:55:18.847Z,51.41
2019-05-13T07:57:45.650Z,51.35
2019-05-13T08:00:12.717Z,51.20
2019-05-13T08:02:41.732Z,51.46
2019-05-13T08:05:08.250Z,51.63
2019-05-13T08:07:35.058Z,51.61
2019-05-13T08:10:03.563Z,51.54
2019-05-13T08:12:31.912Z,51.20
2019-05-13T08:14:58.918Z,58.06
2019-05-13T08:17:25.712Z,56.35
2019-05-13T08:20:12.486Z,54.75
2019-05-13T08:22:39.650Z,53.66
2019-05-13T08:25:08.078Z,52.75
2019-05-13T08:27:35.246Z,52.26
2019-05-13T08:30:02.261Z,52.54
2019-05-13T08:32:31.266Z,51.61
2019-05-13T08:35:01.438Z,46.19
2019-05-13T08:37:26.105Z,48.23
2019-05-13T08:39:52.901Z,49.35
2019-05-13T08:42:23.066Z,49.37
2019-05-13T08:44:48.172Z,43.24
2019-05-13T08:47:14.968Z,43.14
2019-05-13T08:49:42.153Z,45.84
2019-05-13T08:52:11.877Z,46.33
2019-05-13T08:54:37.935Z,46.53
2019-05-13T08:57:04.738Z,46.85
2019-05-13T08:59:31.868Z,47.20
2019-05-13T09:01:58.862Z,47.52
2019-05-13T09:04:25.642Z,47.74
2019-05-13T09:06:52.611Z,48.07
2019-05-13T09:09:21.863Z,48.26
2019-05-13T09:11:47.981Z,48.32
2019-05-13T09:14:14.792Z,48.47
2019-05-13T09:16:42.048Z,48.60
2019-05-13T09:19:12.879Z,48.64
2019-05-13T09:21:37.394Z,48.79
2019-05-13T09:24:19.372Z,48.81
2019-05-13T09:26:32.708Z,48.93
2019-05-13T09:29:01.446Z,49.00
2019-05-13T09:31:27.978Z,49.05
2019-05-13T09:33:54.753Z,49.14
2019-05-13T09:36:21.902Z,49.13
2019-05-13T09:38:48.794Z,49.18
2019-05-13T09:41:15.573Z,49.26
2019-05-13T09:43:42.348Z,49.27
2019-05-13T09:46:11.681Z,49.22
2019-05-13T09:48:37.638Z,49.36
2019-05-13T09:51:04.422Z,49.31
2019-05-13T09:53:32.591Z,49.19
2019-05-13T09:56:02.181Z,49.45
2019-05-13T09:58:30.479Z,49.26
2019-05-13T10:00:56.783Z,49.10
2019-05-13T10:03:29.199Z,49.27
2019-05-13T10:05:52.091Z,48.93
2019-05-13T10:08:21.639Z,48.95
2019-05-13T10:10:47.430Z,49.02
2019-05-13T10:13:15.637Z,48.62
2019-05-13T10:15:43.046Z,48.44
2019-05-13T10:18:12.381Z,48.84
2019-05-13T10:20:38.346Z,48.51
2019-05-13T10:23:05.142Z,48.56
2019-05-13T10:25:32.017Z,48.44
2019-05-13T10:28:01.823Z,48.59
2019-05-13T10:30:27.376Z,48.43
2019-05-13T10:32:54.164Z,48.32
2019-05-13T10:35:20.986Z,48.46
2019-05-13T10:37:47.757Z,48.45
2019-05-13T10:40:14.806Z,48.33
2019-05-13T10:42:43.302Z,48.41
2019-05-13T10:45:12.441Z,48.44
2019-05-13T10:47:38.617Z,48.42
2019-05-13T10:50:05.413Z,48.42
2019-05-13T10:52:32.369Z,48.46
2019-05-13T10:55:01.719Z,48.28
2019-05-13T10:57:27.733Z,48.48
2019-05-13T10:59:59.483Z,48.33
2019-05-13T11:02:23.031Z,48.46
2019-05-13T11:04:51.916Z,48.41
2019-05-13T11:07:18.324Z,48.51
2019-05-13T11:09:45.093Z,48.48
2019-05-13T11:12:12.459Z,48.47
2019-05-13T11:14:39.542Z,48.35
2019-05-13T11:17:08.007Z,48.40
2019-05-13T11:19:37.176Z,48.40
2019-05-13T11:22:03.386Z,48.40
2019-05-13T11:24:32.425Z,48.44
2019-05-13T11:26:59.006Z,48.46
2019-05-13T11:29:25.885Z,48.37
2019-05-13T11:31:53.155Z,48.46
2019-05-13T11:34:22.147Z,48.38
2019-05-13T11:36:49.148Z,48.42
2019-05-13T11:39:15.930Z,48.38
2019-05-13T11:41:42.944Z,48.42
2019-05-13T11:44:16.068Z,48.39
2019-05-13T11:46:38.643Z,48.48
2019-05-13T11:49:05.408Z,48.45
2019-05-13T11:51:32.467Z,48.44
2019-05-13T11:54:01.810Z,48.40
2019-05-13T11:56:28.069Z,48.44
2019-05-13T11:58:54.856Z,48.44
2019-05-13T12:01:22.837Z,48.31
2019-05-13T12:03:52.810Z,48.42
2019-05-13T12:06:18.394Z,48.65
2019-05-13T12:08:51.044Z,48.64
2019-05-13T12:11:14.208Z,48.94
2019-05-13T12:13:42.589Z,49.00
2019-05-13T12:16:12.220Z,49.27
2019-05-13T12:18:43.447Z,49.40
2019-05-13T12:21:06.606Z,49.33
2019-05-13T12:23:33.405Z,49.33
2019-05-13T12:26:04.126Z,49.30
2019-05-13T12:28:28.758Z,49.35
2019-05-13T12:30:55.688Z,49.37
2019-05-13T12:33:23.026Z,49.47
2019-05-13T12:35:52.905Z,49.45
2019-05-13T12:38:18.798Z,49.46
2019-05-13T12:40:45.754Z,49.41
2019-05-13T12:43:14.085Z,49.22
2019-05-13T12:45:43.110Z,49.16
2019-05-13T12:48:13.648Z,49.21
2019-05-13T12:50:38.453Z,48.95
2019-05-13T12:53:05.355Z,47.98
2019-05-13T12:55:33.095Z,48.67
2019-05-13T12:58:02.798Z,48.76
2019-05-13T13:00:29.078Z,49.23
2019-05-13T13:02:56.326Z,49.49
2019-05-13T13:05:24.836Z,49.61
2019-05-13T13:08:16.089Z,48.74
2019-05-13T13:10:23.142Z,48.07
2019-05-13T13:12:48.787Z,48.94
2019-05-13T13:15:35.895Z,49.00
2019-05-13T13:17:44.161Z,48.92
2019-05-13T13:20:14.926Z,49.01
2019-05-13T13:22:39.719Z,48.99
2019-05-13T13:25:06.507Z,48.98
2019-05-13T13:28:02.133Z,48.88
2019-05-13T13:30:04.443Z,48.88
2019-05-13T13:32:33.208Z,48.83
2019-05-13T13:34:58.784Z,48.76
2019-05-13T13:37:25.864Z,48.85
2019-05-13T13:39:55.160Z,48.82
2019-05-13T13:42:21.188Z,48.71
2019-05-13T13:44:47.967Z,48.82
2019-05-13T13:47:15.399Z,48.79
2019-05-13T13:49:43.927Z,48.75
2019-05-13T13:52:16.011Z,48.81
2019-05-13T13:54:43.801Z,48.74
2019-05-13T13:57:07.988Z,48.66
2019-05-13T13:59:36.054Z,48.68
2019-05-13T14:02:05.357Z,48.65
2019-05-13T14:04:31.626Z,48.64
2019-05-13T14:09:26.938Z,48.71
2019-05-13T14:11:53.811Z,48.63
2019-05-13T14:14:21.603Z,48.64
2019-05-13T14:16:48.654Z,48.55
2019-05-13T14:19:15.416Z,48.66
2019-05-13T14:21:42.243Z,48.58
2019-05-13T14:24:09.044Z,48.51
2019-05-13T14:26:35.821Z,48.38
2019-05-13T14:29:02.937Z,48.48
2019-05-13T14:31:31.705Z,48.35
2019-05-13T14:33:58.349Z,48.42
2019-05-13T14:36:25.155Z,48.49
2019-05-13T14:38:52.742Z,48.38
2019-05-13T14:41:21.967Z,48.36
2019-05-13T14:43:48.480Z,48.35
2019-05-13T14:46:15.254Z,48.50
2019-05-13T14:48:43.367Z,48.38
2019-05-13T14:51:12.242Z,48.41
2019-05-13T14:53:41.479Z,48.32
2019-05-13T14:56:07.426Z,48.26
2019-05-13T14:58:34.214Z,48.49
2019-05-13T15:01:14.814Z,48.42
2019-05-13T15:03:29.485Z,48.50
2019-05-13T15:05:56.276Z,48.49
2019-05-13T15:08:25.776Z,48.52
2019-05-13T15:10:53.339Z,48.43
2019-05-13T15:13:20.284Z,48.51
2019-05-13T15:15:47.052Z,48.50
2019-05-13T15:18:13.870Z,48.51
2019-05-13T15:20:41.700Z,48.51
2019-05-13T15:23:08.616Z,48.62
2019-05-13T15:25:35.606Z,48.58
2019-05-13T15:28:03.028Z,48.60
2019-05-13T15:30:31.582Z,48.46
2019-05-13T15:32:58.503Z,48.67
2019-05-13T15:35:25.310Z,48.56
2019-05-13T15:37:53.138Z,48.63
2019-05-13T15:40:22.002Z,48.58
2019-05-13T15:42:48.645Z,48.66
2019-05-13T15:45:15.411Z,48.68
2019-05-13T15:47:42.200Z,48.63
2019-05-13T15:50:09.077Z,48.65
2019-05-13T15:52:35.947Z,48.71
2019-05-13T15:55:02.740Z,48.71
2019-05-13T15:57:31.399Z,48.75
2019-05-13T15:59:58.349Z,48.71
2019-05-13T16:02:25.219Z,48.59
2019-05-13T16:05:00.250Z,48.68
2019-05-13T16:07:29.318Z,48.75
2019-05-13T16:09:56.106Z,48.67
2019-05-13T16:12:22.922Z,48.75
2019-05-13T16:14:50.114Z,48.72
2019-05-13T16:17:16.897Z,48.82
2019-05-13T16:19:43.695Z,48.77
2019-05-13T16:22:11.831Z,48.68
2019-05-13T16:24:41.294Z,48.74
2019-05-13T16:27:07.460Z,48.76
2019-05-13T16:29:34.256Z,48.72
2019-05-13T16:32:01.639Z,49.02
2019-05-13T16:34:28.567Z,48.91
2019-05-13T16:36:55.357Z,48.84
2019-05-13T16:39:22.127Z,48.90
2019-05-13T16:41:48.913Z,49.20
2019-05-13T16:44:15.698Z,49.30
2019-05-13T16:46:44.943Z,49.46
2019-05-13T16:49:12.262Z,49.47
2019-05-13T16:51:39.460Z,49.56
2019-05-13T16:54:06.283Z,49.88
2019-05-13T16:56:33.560Z,49.78
2019-05-13T16:59:01.634Z,49.80
2019-05-13T17:01:28.809Z,49.75
2019-05-13T17:03:55.750Z,49.89
2019-05-13T17:06:22.614Z,49.96
2019-05-13T17:08:51.630Z,49.92
2019-05-13T17:11:18.298Z,49.83
2019-05-13T17:13:45.243Z,50.04
2019-05-13T17:16:12.095Z,50.01
2019-05-13T17:18:38.889Z,50.04
2019-05-13T17:21:05.663Z,49.89
2019-05-13T17:23:32.433Z,49.83
2019-05-13T17:25:59.213Z,49.88
2019-05-13T17:28:26.019Z,49.84
2019-05-13T17:30:52.831Z,49.95
2019-05-13T17:33:22.841Z,49.94
2019-05-13T17:35:48.151Z,50.00
2019-05-13T17:38:14.930Z,49.88
2019-05-13T17:40:42.122Z,49.83
2019-05-13T17:43:09.068Z,49.86
2019-05-13T17:45:35.830Z,49.84
2019-05-13T17:48:02.609Z,49.92
2019-05-13T17:50:31.373Z,49.92
2019-05-13T17:52:57.914Z,49.84
2019-05-13T17:55:24.707Z,49.71
2019-05-13T17:57:51.496Z,49.80
2019-05-13T18:00:18.292Z,49.84
2019-05-13T18:02:45.066Z,49.75
2019-05-13T18:05:12.307Z,49.74
2019-05-13T18:07:39.121Z,49.71
2019-05-13T18:10:05.907Z,49.78
2019-05-13T18:12:32.679Z,49.78
2019-05-13T18:14:59.467Z,49.65
2019-05-13T18:17:26.262Z,49.69
2019-05-13T18:19:53.047Z,49.69
2019-05-13T18:22:19.825Z,49.66
2019-05-13T18:24:46.589Z,49.61
2019-05-13T18:27:13.386Z,49.61
2019-05-13T18:29:41.945Z,49.63
2019-05-13T18:32:08.674Z,49.67
2019-05-13T18:34:35.469Z,49.71
2019-05-13T18:37:02.669Z,49.66
2019-05-13T18:39:32.046Z,49.62
2019-05-13T18:41:58.144Z,49.60
2019-05-13T18:44:24.937Z,49.61
2019-05-13T18:46:52.319Z,49.10
2019-05-13T18:49:21.072Z,49.12
2019-05-13T18:51:48.058Z,49.08
2019-05-13T18:54:14.843Z,48.79
2019-05-13T18:56:41.929Z,48.41
2019-05-13T18:59:08.871Z,48.77
2019-05-13T19:01:35.663Z,48.67
2019-05-13T19:04:02.442Z,48.52
2019-05-13T19:06:31.485Z,48.64
2019-05-13T19:08:57.759Z,48.52
2019-05-13T19:11:24.529Z,48.52
2019-05-13T19:13:52.126Z,48.49
2019-05-13T19:16:21.223Z,48.78
2019-05-13T19:18:47.573Z,48.73
2019-05-13T19:21:14.369Z,48.66
2019-05-13T19:23:41.929Z,48.69
2019-05-13T19:26:11.139Z,48.53
2019-05-13T19:28:37.360Z,48.50
2019-05-13T19:31:04.157Z,48.67
2019-05-13T19:33:30.968Z,49.05
2019-05-13T19:35:57.743Z,49.31
2019-05-13T19:38:24.542Z,49.75
2019-05-13T19:40:51.307Z,50.18
2019-05-13T19:43:18.074Z,49.72
2019-05-13T19:45:44.871Z,49.54
2019-05-13T19:48:12.053Z,49.57
2019-05-13T19:50:41.396Z,49.36
2019-05-13T19:53:07.506Z,49.48
2019-05-13T19:55:34.425Z,49.49
2019-05-13T19:58:01.845Z,49.48
2019-05-13T20:00:28.759Z,49.45
2019-05-13T20:02:55.548Z,49.55
2019-05-13T20:05:23.178Z,49.49
2019-05-13T20:07:52.258Z,49.59
2019-05-13T20:10:18.590Z,49.41
2019-05-13T20:12:45.630Z,49.24
2019-05-13T20:15:12.392Z,49.42
2019-05-13T20:17:41.424Z,49.57
2019-05-13T20:20:07.943Z,49.65
2019-05-13T20:22:34.967Z,49.77
2019-05-13T20:25:10.171Z,50.19
2019-05-13T20:27:36.388Z,49.93
2019-05-13T20:30:03.321Z,50.00
2019-05-13T20:32:30.371Z,50.00
2019-05-13T20:34:57.133Z,49.96
2019-05-13T20:37:23.987Z,50.08
2019-05-13T20:39:51.500Z,50.23
2019-05-13T20:42:18.570Z,50.47
2019-05-13T20:44:45.484Z,50.26
2019-05-13T20:47:12.397Z,50.18
2019-05-13T20:49:41.557Z,50.27
2019-05-13T20:52:07.791Z,50.43
2019-05-13T20:54:34.752Z,50.34
2019-05-13T20:57:02.246Z,50.75
2019-05-13T20:59:29.195Z,50.45
2019-05-13T21:01:56.202Z,50.52
2019-05-13T21:04:23.177Z,50.67
2019-05-13T21:06:51.591Z,50.61
2019-05-13T21:09:18.880Z,50.61
2019-05-13T21:11:46.348Z,50.54
2019-05-13T21:14:13.211Z,50.63
2019-05-13T21:16:41.715Z,50.61
2019-05-13T21:19:08.956Z,50.71
2019-05-13T21:21:35.816Z,50.63
2019-05-13T21:24:02.820Z,50.63
2019-05-13T21:26:31.488Z,50.59
2019-05-13T21:28:58.729Z,50.58
2019-05-13T21:31:25.896Z,50.89
2019-05-13T21:33:52.877Z,50.79
2019-05-13T21:36:21.638Z,50.70
2019-05-13T21:38:48.345Z,50.61
2019-05-13T21:41:15.605Z,50.86
2019-05-13T21:43:42.516Z,51.01
2019-05-13T21:46:11.886Z,50.94
2019-05-13T21:48:38.199Z,50.61
2019-05-13T21:51:05.297Z,50.88
2019-05-13T21:53:32.767Z,50.87
2019-05-13T21:56:02.016Z,50.92
2019-05-13T21:58:28.512Z,50.87
2019-05-13T22:00:55.625Z,50.92
2019-05-13T22:03:22.604Z,51.03
2019-05-13T22:05:51.582Z,50.86
2019-05-13T22:08:18.127Z,50.81
2019-05-13T22:10:44.955Z,50.97
2019-05-13T22:13:11.988Z,50.99
2019-05-13T22:15:38.881Z,51.14
2019-05-13T22:18:05.679Z,51.12
2019-05-13T22:20:45.756Z,50.89
2019-05-13T22:23:01.442Z,50.85
2019-05-13T22:25:28.431Z,51.08
2019-05-13T22:27:55.258Z,51.32
2019-05-13T22:30:22.046Z,51.20
2019-05-13T22:32:48.908Z,51.00
2019-05-13T22:35:15.682Z,51.40
2019-05-13T22:37:42.519Z,51.25
2019-05-13T22:40:11.299Z,50.98
2019-05-13T22:42:37.843Z,51.16
2019-05-13T22:45:04.650Z,51.13
2019-05-13T22:47:31.611Z,51.12
2019-05-13T22:49:58.514Z,50.97
2019-05-13T22:52:25.301Z,51.00
2019-05-13T22:54:52.085Z,51.21
2019-05-13T22:57:18.938Z,51.25
2019-05-13T22:59:45.722Z,51.08
2019-05-13T23:02:12.513Z,51.19
2019-05-13T23:04:41.690Z,51.06
2019-05-13T23:07:07.869Z,51.05
2019-05-13T23:09:34.698Z,50.95
2019-05-13T23:12:01.754Z,51.11
2019-05-13T23:14:28.783Z,51.02
2019-05-13T23:16:55.575Z,50.96
2019-05-13T23:19:22.343Z,51.15
2019-05-13T23:21:51.167Z,51.05
2019-05-13T23:24:18.007Z,51.00
2019-05-13T23:26:44.826Z,51.20
2019-05-13T23:29:11.614Z,51.21
2019-05-13T23:31:38.394Z,51.10
2019-05-13T23:34:05.218Z,51.31
2019-05-13T23:36:32.008Z,51.17
2019-05-13T23:39:00.928Z,51.11
2019-05-13T23:41:27.336Z,51.06
2019-05-13T23:43:54.509Z,51.16
2019-05-13T23:46:22.270Z,51.12
2019-05-13T23:48:49.381Z,51.19
2019-05-13T23:51:16.168Z,51.12
2019-05-13T23:53:42.965Z,51.09
2019-05-13T23:56:11.203Z,51.02
2019-05-13T23:58:38.132Z,51.12
